Bernard G. — WDF9486 — position and weather

sailwx.info

Track history (hours):
 
Tides and Currents Weather Stations Pressure Air Temp Water Temp Dewpoint Dewpoint Depression Visibility Wind Speed Wind Dir Waves Ship Positions

Bernard G.

Owner: Marquette Transportation Co. LLC, Paducah, KY. More information available from US FCC via Universal Licensing System and Coast Guard Vessel Documentation Center.

Last reported at 2018-May-13 17:19 UTC. Time now 2018-Jun-18 18:56 UTC.
Position N 38°40' W 090°11'.
Warning: this ship's position is 36 days out of date.

Length 43 m; draft 3 m.

Type: Towing. MMSI: 367505650.

Date/timePositionNaut miles runAvg speedWind from/ knotsBaromVisibWave heightAir tempDewpointWater temp
2018-May-13 17:19N 38°40' W 090°11'3 1.8
2018-May-13 15:35N 38°43' W 090°10'0 1.0
2018-May-13 15:30N 38°43' W 090°10'0 0.5
2018-May-13 14:46N 38°44' W 090°10'1 2.9
2018-May-13 14:30N 38°44' W 090°09'2 4.3
2018-May-13 13:58N 38°47' W 090°08'3 6.0
2018-May-13 13:30N 38°49' W 090°07'3 6.2
2018-May-13 13:00N 38°52' W 090°08'0 0.1
2018-May-13 12:30N 38°52' W 090°09'0 0.0
2018-May-13 12:00N 38°52' W 090°09'0 0.0
2018-May-13 11:30N 38°52' W 090°09'0 0.0
2018-May-13 11:00N 38°52' W 090°09'0 0.0
2018-May-13 10:30N 38°52' W 090°09'0 0.0
2018-May-13 10:00N 38°52' W 090°09'0 0.8
2018-May-13 09:30N 38°52' W 090°09'0 0.7
2018-May-13 09:00N 38°52' W 090°09'1 2.3
2018-May-13 08:30N 38°53' W 090°11'3 5.4
2018-May-13 08:00N 38°55' W 090°13'0 0.5
2018-May-13 07:30N 38°55' W 090°13'0 0.0
2018-May-13 07:00N 38°55' W 090°13'0 0.0
2018-May-13 06:30N 38°55' W 090°13'0 0.0
2018-May-13 06:00N 38°55' W 090°13'0 0.0
2018-May-13 05:30N 38°55' W 090°13'0 0.0
2018-May-13 05:00N 38°55' W 090°13'2 4.1
2018-May-13 04:30N 38°55' W 090°16'3 6.6
2018-May-13 04:00N 38°56' W 090°20'3 7.1
2018-May-13 03:30N 38°58' W 090°24'3 6.7
2018-May-13 03:00N 38°57' W 090°28'3 6.9
2018-May-13 02:30N 38°54' W 090°31'3 6.7
2018-May-13 02:00N 38°52' W 090°34'3 6.2
2018-May-13 01:30N 38°54' W 090°38'3 6.9
2018-May-13 01:00N 38°57' W 090°40'4 7.0
2018-May-13 00:30N 38°60' W 090°41'0 0.6
2018-May-13 00:00N 39°00' W 090°41'0 0.3
2018-May-12 23:30N 39°00' W 090°41'0 0.0
2018-May-12 23:00N 39°00' W 090°41'0 0.5
2018-May-12 22:30N 39°01' W 090°42'0 0.0
2018-May-12 22:00N 39°01' W 090°42'2 3.1
2018-May-12 21:30N 39°02' W 090°42'3 5.2
2018-May-12 21:00N 39°05' W 090°42'3 5.4
2018-May-12 20:30N 39°07' W 090°41'  
Track history (hours):
 
Tides and Currents Weather Stations Pressure Air Temp Water Temp Dewpoint Dewpoint Depression Visibility Wind Speed Wind Dir Waves Ship Positions

Bernard G.

Owner: Marquette Transportation Co. LLC, Paducah, KY. More information available from US FCC via Universal Licensing System and Coast Guard Vessel Documentation Center.

Last reported at 2018-May-13 17:19 UTC. Time now 2018-Jun-18 18:56 UTC.
Position N 38°40' W 090°11'.
Warning: this ship's position is 36 days out of date.

Length 43 m; draft 3 m.

Type: Towing. MMSI: 367505650.

Date/timePositionNaut miles runAvg speedWind from/ knotsBaromVisibWave heightAir tempDewpointWater temp
2018-May-13 17:19N 38°40' W 090°11'3 1.8
2018-May-13 15:35N 38°43' W 090°10'0 1.0
2018-May-13 15:30N 38°43' W 090°10'0 0.5
2018-May-13 14:46N 38°44' W 090°10'1 2.9
2018-May-13 14:30N 38°44' W 090°09'2 4.3
2018-May-13 13:58N 38°47' W 090°08'3 6.0
2018-May-13 13:30N 38°49' W 090°07'3 6.2
2018-May-13 13:00N 38°52' W 090°08'0 0.1
2018-May-13 12:30N 38°52' W 090°09'0 0.0
2018-May-13 12:00N 38°52' W 090°09'0 0.0
2018-May-13 11:30N 38°52' W 090°09'0 0.0
2018-May-13 11:00N 38°52' W 090°09'0 0.0
2018-May-13 10:30N 38°52' W 090°09'0 0.0
2018-May-13 10:00N 38°52' W 090°09'0 0.8
2018-May-13 09:30N 38°52' W 090°09'0 0.7
2018-May-13 09:00N 38°52' W 090°09'1 2.3
2018-May-13 08:30N 38°53' W 090°11'3 5.4
2018-May-13 08:00N 38°55' W 090°13'0 0.5
2018-May-13 07:30N 38°55' W 090°13'0 0.0
2018-May-13 07:00N 38°55' W 090°13'0 0.0
2018-May-13 06:30N 38°55' W 090°13'0 0.0
2018-May-13 06:00N 38°55' W 090°13'0 0.0
2018-May-13 05:30N 38°55' W 090°13'0 0.0
2018-May-13 05:00N 38°55' W 090°13'2 4.1
2018-May-13 04:30N 38°55' W 090°16'3 6.6
2018-May-13 04:00N 38°56' W 090°20'3 7.1
2018-May-13 03:30N 38°58' W 090°24'3 6.7
2018-May-13 03:00N 38°57' W 090°28'3 6.9
2018-May-13 02:30N 38°54' W 090°31'3 6.7
2018-May-13 02:00N 38°52' W 090°34'3 6.2
2018-May-13 01:30N 38°54' W 090°38'3 6.9
2018-May-13 01:00N 38°57' W 090°40'4 7.0
2018-May-13 00:30N 38°60' W 090°41'0 0.6
2018-May-13 00:00N 39°00' W 090°41'0 0.3
2018-May-12 23:30N 39°00' W 090°41'0 0.0
2018-May-12 23:00N 39°00' W 090°41'0 0.5
2018-May-12 22:30N 39°01' W 090°42'0 0.0
2018-May-12 22:00N 39°01' W 090°42'2 3.1
2018-May-12 21:30N 39°02' W 090°42'3 5.2
2018-May-12 21:00N 39°05' W 090°42'3 5.4
2018-May-12 20:30N 39°07' W 090°41'  

Dump ship's entire track history